sensor_id;sensor_type;location;lat;lon;timestamp;pressure;altitude;pressure_sealevel;temperature;humidity
77979;BME280;67169;50.268;8.694;2024-03-22T00:00:26;100339.16;;;6.54;90.33
77979;BME280;67169;50.268;8.694;2024-03-22T00:02:53;100360.47;;;6.58;90.90
77979;BME280;67169;50.268;8.694;2024-03-22T00:05:18;100360.56;;;6.49;91.55
77979;BME280;67169;50.268;8.694;2024-03-22T00:07:46;100365.09;;;6.42;91.95
77979;BME280;67169;50.268;8.694;2024-03-22T00:10:12;100356.25;;;6.39;92.23
77979;BME280;67169;50.268;8.694;2024-03-22T00:12:39;100353.50;;;6.45;92.64
77979;BME280;67169;50.268;8.694;2024-03-22T00:15:05;100338.47;;;6.35;92.84
77979;BME280;67169;50.268;8.694;2024-03-22T00:17:33;100349.06;;;6.42;92.94
77979;BME280;67169;50.268;8.694;2024-03-22T00:20:00;100347.41;;;6.34;93.04
77979;BME280;67169;50.268;8.694;2024-03-22T00:22:26;100348.38;;;6.25;93.35
77979;BME280;67169;50.268;8.694;2024-03-22T00:24:52;100345.00;;;6.09;93.33
77979;BME280;67169;50.268;8.694;2024-03-22T00:27:18;100346.84;;;6.03;93.78
77979;BME280;67169;50.268;8.694;2024-03-22T00:29:44;100338.81;;;6.04;94.18
77979;BME280;67169;50.268;8.694;2024-03-22T00:32:10;100337.94;;;6.04;94.53
77979;BME280;67169;50.268;8.694;2024-03-22T00:34:37;100327.34;;;5.96;94.56
77979;BME280;67169;50.268;8.694;2024-03-22T00:37:03;100338.88;;;6.00;94.74
77979;BME280;67169;50.268;8.694;2024-03-22T00:39:29;100323.81;;;5.92;94.92
77979;BME280;67169;50.268;8.694;2024-03-22T00:41:55;100327.31;;;5.99;95.19
77979;BME280;67169;50.268;8.694;2024-03-22T00:44:21;100329.94;;;6.04;95.09
77979;BME280;67169;50.268;8.694;2024-03-22T00:46:47;100332.63;;;6.01;95.29
77979;BME280;67169;50.268;8.694;2024-03-22T00:49:13;100321.09;;;5.97;95.32
77979;BME280;67169;50.268;8.694;2024-03-22T00:51:41;100314.94;;;5.87;95.29
77979;BME280;67169;50.268;8.694;2024-03-22T00:54:08;100315.03;;;5.77;95.60
77979;BME280;67169;50.268;8.694;2024-03-22T00:56:35;100318.66;;;5.69;96.11
77979;BME280;67169;50.268;8.694;2024-03-22T00:59:00;100310.75;;;5.62;96.38
77979;BME280;67169;50.268;8.694;2024-03-22T01:01:27;100313.38;;;5.63;96.61
77979;BME280;67169;50.268;8.694;2024-03-22T01:03:53;100311.63;;;5.62;96.81
77979;BME280;67169;50.268;8.694;2024-03-22T01:06:19;100309.84;;;5.61;96.88
77979;BME280;67169;50.268;8.694;2024-03-22T01:08:51;100302.75;;;5.59;96.99
77979;BME280;67169;50.268;8.694;2024-03-22T01:11:17;100308.06;;;5.62;96.94
77979;BME280;67169;50.268;8.694;2024-03-22T01:13:43;100306.25;;;5.65;97.10
77979;BME280;67169;50.268;8.694;2024-03-22T01:16:09;100298.22;;;5.67;97.22
77979;BME280;67169;50.268;8.694;2024-03-22T01:18:35;100300.03;;;5.63;97.07
77979;BME280;67169;50.268;8.694;2024-03-22T01:21:02;100298.28;;;5.61;97.10
77979;BME280;67169;50.268;8.694;2024-03-22T01:23:27;100294.72;;;5.60;97.16
77979;BME280;67169;50.268;8.694;2024-03-22T01:25:55;100281.47;;;5.54;97.06
77979;BME280;67169;50.268;8.694;2024-03-22T01:28:21;100288.69;;;5.40;97.18
77979;BME280;67169;50.268;8.694;2024-03-22T01:30:47;100272.91;;;5.12;97.59
77979;BME280;67169;50.268;8.694;2024-03-22T01:33:13;100266.88;;;4.90;98.09
77979;BME280;67169;50.268;8.694;2024-03-22T01:35:39;100285.38;;;5.10;98.58
77979;BME280;67169;50.268;8.694;2024-03-22T01:38:05;100289.00;;;5.03;98.89
77979;BME280;67169;50.268;8.694;2024-03-22T01:40:31;100280.13;;;4.98;99.02
77979;BME280;67169;50.268;8.694;2024-03-22T01:42:59;100292.53;;;5.02;99.19
77979;BME280;67169;50.268;8.694;2024-03-22T01:45:31;100289.00;;;5.03;99.22
77979;BME280;67169;50.268;8.694;2024-03-22T01:47:57;100286.31;;;5.02;99.44
77979;BME280;67169;50.268;8.694;2024-03-22T01:50:24;100280.13;;;5.01;99.54
77979;BME280;67169;50.268;8.694;2024-03-22T01:52:51;100290.81;;;4.95;99.62
77979;BME280;67169;50.268;8.694;2024-03-22T01:55:18;100288.22;;;4.86;100.00
77979;BME280;67169;50.268;8.694;2024-03-22T01:57:43;100281.16;;;4.80;100.00
77979;BME280;67169;50.268;8.694;2024-03-22T02:00:12;100267.88;;;4.72;100.00
77979;BME280;67169;50.268;8.694;2024-03-22T02:02:38;100282.91;;;4.81;100.00
77979;BME280;67169;50.268;8.694;2024-03-22T02:05:11;100269.56;;;4.86;100.00
77979;BME280;67169;50.268;8.694;2024-03-22T02:07:37;100274.88;;;4.87;100.00
77979;BME280;67169;50.268;8.694;2024-03-22T02:10:04;100261.56;;;4.86;100.00
77979;BME280;67169;50.268;8.694;2024-03-22T02:12:30;100257.13;;;4.82;100.00
77979;BME280;67169;50.268;8.694;2024-03-22T02:14:57;100251.84;;;4.79;100.00
77979;BME280;67169;50.268;8.694;2024-03-22T02:17:24;100248.22;;;4.87;100.00
77979;BME280;67169;50.268;8.694;2024-03-22T02:19:51;100248.28;;;4.80;100.00
77979;BME280;67169;50.268;8.694;2024-03-22T02:22:16;100242.97;;;4.76;100.00
77979;BME280;67169;50.268;8.694;2024-03-22T02:24:44;100238.59;;;4.66;100.00
77979;BME280;67169;50.268;8.694;2024-03-22T02:27:10;100238.56;;;4.71;100.00
77979;BME280;67169;50.268;8.694;2024-03-22T02:29:36;100240.44;;;4.58;100.00
77979;BME280;67169;50.268;8.694;2024-03-22T02:32:02;100234.25;;;4.53;100.00
77979;BME280;67169;50.268;8.694;2024-03-22T02:34:29;100225.50;;;4.31;100.00
77979;BME280;67169;50.268;8.694;2024-03-22T02:36:55;100233.44;;;4.39;100.00
77979;BME280;67169;50.268;8.694;2024-03-22T02:39:21;100245.00;;;4.35;100.00
77979;BME280;67169;50.268;8.694;2024-03-22T02:41:48;100239.69;;;4.28;100.00
77979;BME280;67169;50.268;8.694;2024-03-22T02:44:14;100243.28;;;4.21;100.00
77979;BME280;67169;50.268;8.694;2024-03-22T02:46:40;100238.88;;;4.16;100.00
77979;BME280;67169;50.268;8.694;2024-03-22T02:49:06;100245.06;;;4.19;100.00
77979;BME280;67169;50.268;8.694;2024-03-22T02:51:32;100239.75;;;4.19;100.00
77979;BME280;67169;50.268;8.694;2024-03-22T02:53:58;100188.38;;;3.99;100.00
77979;BME280;67169;50.268;8.694;2024-03-22T02:56:24;100232.63;;;4.24;100.00
77979;BME280;67169;50.268;8.694;2024-03-22T02:58:52;100227.31;;;4.24;100.00
77979;BME280;67169;50.268;8.694;2024-03-22T03:01:17;100218.38;;;4.32;100.00
77979;BME280;67169;50.268;8.694;2024-03-22T03:03:44;100209.44;;;4.45;100.00
77979;BME280;67169;50.268;8.694;2024-03-22T03:06:09;100220.00;;;4.59;100.00
77979;BME280;67169;50.268;8.694;2024-03-22T03:08:38;100225.41;;;4.51;100.00
77979;BME280;67169;50.268;8.694;2024-03-22T03:11:03;100220.13;;;4.39;100.00
77979;BME280;67169;50.268;8.694;2024-03-22T03:13:30;100209.50;;;4.29;100.00
77979;BME280;67169;50.268;8.694;2024-03-22T03:15:57;100210.44;;;4.27;100.00
77979;BME280;67169;50.268;8.694;2024-03-22T03:18:24;100197.13;;;4.22;100.00
77979;BME280;67169;50.268;8.694;2024-03-22T03:20:49;100202.44;;;4.25;100.00
77979;BME280;67169;50.268;8.694;2024-03-22T03:23:16;100205.97;;;4.31;100.00
77979;BME280;67169;50.268;8.694;2024-03-22T03:25:41;100212.16;;;4.33;100.00
77979;BME280;67169;50.268;8.694;2024-03-22T03:28:08;100203.31;;;4.26;100.00
77979;BME280;67169;50.268;8.694;2024-03-22T03:30:34;100174.13;;;4.09;100.00
77979;BME280;67169;50.268;8.694;2024-03-22T03:33:02;100200.69;;;4.24;100.00
77979;BME280;67169;50.268;8.694;2024-03-22T03:35:27;100181.19;;;4.16;100.00
77979;BME280;67169;50.268;8.694;2024-03-22T03:37:54;100205.06;;;4.33;100.00
77979;BME280;67169;50.268;8.694;2024-03-22T03:40:20;100204.16;;;4.36;100.00
77979;BME280;67169;50.268;8.694;2024-03-22T03:42:47;100196.28;;;4.13;100.00
77979;BME280;67169;50.268;8.694;2024-03-22T03:45:12;100200.72;;;4.15;100.00
77979;BME280;67169;50.268;8.694;2024-03-22T03:47:39;100165.31;;;4.01;100.00
77979;BME280;67169;50.268;8.694;2024-03-22T03:50:07;100193.63;;;4.14;100.00
77979;BME280;67169;50.268;8.694;2024-03-22T03:52:34;100200.72;;;4.18;100.00
77979;BME280;67169;50.268;8.694;2024-03-22T03:54:59;100198.06;;;4.15;100.00
77979;BME280;67169;50.268;8.694;2024-03-22T03:57:26;100140.53;;;3.85;100.00
77979;BME280;67169;50.268;8.694;2024-03-22T03:59:51;100152.91;;;3.98;100.00
77979;BME280;67169;50.268;8.694;2024-03-22T04:02:18;100183.81;;;4.22;100.00
77979;BME280;67169;50.268;8.694;2024-03-22T04:04:43;100196.22;;;4.26;100.00
77979;BME280;67169;50.268;8.694;2024-03-22T04:07:11;100185.59;;;4.25;100.00
77979;BME280;67169;50.268;8.694;2024-03-22T04:09:36;100174.03;;;4.27;100.00
77979;BME280;67169;50.268;8.694;2024-03-22T04:12:03;100166.91;;;4.29;100.00
77979;BME280;67169;50.268;8.694;2024-03-22T04:14:29;100166.03;;;4.29;100.00
77979;BME280;67169;50.268;8.694;2024-03-22T04:16:55;100174.03;;;4.31;100.00
77979;BME280;67169;50.268;8.694;2024-03-22T04:19:21;100175.78;;;4.32;100.00
77979;BME280;67169;50.268;8.694;2024-03-22T04:21:48;100167.78;;;4.33;100.00
77979;BME280;67169;50.268;8.694;2024-03-22T04:24:15;100172.25;;;4.28;100.00
77979;BME280;67169;50.268;8.694;2024-03-22T04:26:42;100175.81;;;4.28;100.00
77979;BME280;67169;50.268;8.694;2024-03-22T04:29:07;100174.03;;;4.27;100.00
77979;BME280;67169;50.268;8.694;2024-03-22T04:31:34;100168.69;;;4.29;100.00
77979;BME280;67169;50.268;8.694;2024-03-22T04:33:59;100164.25;;;4.31;100.00
77979;BME280;67169;50.268;8.694;2024-03-22T04:36:26;100161.63;;;4.25;100.00
77979;BME280;67169;50.268;8.694;2024-03-22T04:38:51;100166.94;;;4.26;100.00
77979;BME280;67169;50.268;8.694;2024-03-22T04:41:19;100166.03;;;4.29;100.00
77979;BME280;67169;50.268;8.694;2024-03-22T04:43:45;100161.63;;;4.28;100.00
77979;BME280;67169;50.268;8.694;2024-03-22T04:46:12;100170.47;;;4.30;100.00
77979;BME280;67169;50.268;8.694;2024-03-22T04:48:39;100171.34;;;4.32;100.00
77979;BME280;67169;50.268;8.694;2024-03-22T04:51:04;100118.28;;;4.04;100.00
77979;BME280;67169;50.268;8.694;2024-03-22T04:53:31;100169.56;;;4.34;100.00
77979;BME280;67169;50.268;8.694;2024-03-22T04:55:56;100158.88;;;4.39;100.00
77979;BME280;67169;50.268;8.694;2024-03-22T04:58:24;100177.47;;;4.45;100.00
77979;BME280;67169;50.268;8.694;2024-03-22T05:00:56;100157.94;;;4.46;100.00
77979;BME280;67169;50.268;8.694;2024-03-22T05:03:23;100153.38;;;4.60;100.00
77979;BME280;67169;50.268;8.694;2024-03-22T05:05:49;100160.44;;;4.67;100.00
77979;BME280;67169;50.268;8.694;2024-03-22T05:08:16;100163.97;;;4.72;100.00
77979;BME280;67169;50.268;8.694;2024-03-22T05:10:42;100170.16;;;4.74;100.00
77979;BME280;67169;50.268;8.694;2024-03-22T05:13:08;100171.97;;;4.72;100.00
77979;BME280;67169;50.268;8.694;2024-03-22T05:15:35;100158.66;;;4.69;100.00
77979;BME280;67169;50.268;8.694;2024-03-22T05:18:02;100154.22;;;4.71;100.00
77979;BME280;67169;50.268;8.694;2024-03-22T05:20:28;100168.34;;;4.80;100.00
77979;BME280;67169;50.268;8.694;2024-03-22T05:22:55;100170.97;;;4.81;100.00
77979;BME280;67169;50.268;8.694;2024-03-22T05:25:20;100172.72;;;4.87;100.00
77979;BME280;67169;50.268;8.694;2024-03-22T05:27:47;100169.13;;;4.91;100.00
77979;BME280;67169;50.268;8.694;2024-03-22T05:30:13;100162.00;;;4.94;100.00
77979;BME280;67169;50.268;8.694;2024-03-22T05:32:41;100168.16;;;5.01;100.00
77979;BME280;67169;50.268;8.694;2024-03-22T05:35:07;100155.72;;;5.00;100.00
77979;BME280;67169;50.268;8.694;2024-03-22T05:37:34;100165.34;;;5.18;100.00
77979;BME280;67169;50.268;8.694;2024-03-22T05:39:59;100160.84;;;5.21;100.00
77979;BME280;67169;50.268;8.694;2024-03-22T05:42:26;100157.25;;;5.26;100.00
77979;BME280;67169;50.268;8.694;2024-03-22T05:44:52;100131.69;;;5.05;100.00
77979;BME280;67169;50.268;8.694;2024-03-22T05:47:19;100169.63;;;5.33;100.00
77979;BME280;67169;50.268;8.694;2024-03-22T05:49:47;100165.13;;;5.38;100.00
77979;BME280;67169;50.268;8.694;2024-03-22T05:52:13;100159.78;;;5.39;100.00
77979;BME280;67169;50.268;8.694;2024-03-22T05:54:40;100162.34;;;5.47;100.00
77979;BME280;67169;50.268;8.694;2024-03-22T05:57:07;100147.97;;;5.60;100.00
77979;BME280;67169;50.268;8.694;2024-03-22T05:59:33;100094.13;;;5.28;100.00
77979;BME280;67169;50.268;8.694;2024-03-22T06:01:59;100154.00;;;5.78;100.00
77979;BME280;67169;50.268;8.694;2024-03-22T06:04:26;100050.56;;;5.29;100.00
77979;BME280;67169;50.268;8.694;2024-03-22T06:06:53;100140.50;;;5.90;100.00
77979;BME280;67169;50.268;8.694;2024-03-22T06:09:19;100135.25;;;5.84;100.00
77979;BME280;67169;50.268;8.694;2024-03-22T06:11:49;100137.88;;;5.88;100.00
77979;BME280;67169;50.268;8.694;2024-03-22T06:14:16;100138.72;;;5.92;100.00
77979;BME280;67169;50.268;8.694;2024-03-22T06:16:42;100129.81;;;5.90;100.00
77979;BME280;67169;50.268;8.694;2024-03-22T06:19:08;100122.56;;;6.01;100.00
77979;BME280;67169;50.268;8.694;2024-03-22T06:21:34;100123.25;;;6.15;100.00
77979;BME280;67169;50.268;8.694;2024-03-22T06:24:02;100092.31;;;6.02;100.00
77979;BME280;67169;50.268;8.694;2024-03-22T06:26:28;100093.06;;;6.12;100.00
77979;BME280;67169;50.268;8.694;2024-03-22T06:28:55;100113.13;;;6.39;100.00
77979;BME280;67169;50.268;8.694;2024-03-22T06:31:21;100090.97;;;6.34;100.00
77979;BME280;67169;50.268;8.694;2024-03-22T06:33:47;100140.44;;;6.58;100.00
77979;BME280;67169;50.268;8.694;2024-03-22T06:36:13;100121.63;;;6.64;100.00
77979;BME280;67169;50.268;8.694;2024-03-22T06:38:41;100085.56;;;6.37;100.00
77979;BME280;67169;50.268;8.694;2024-03-22T06:41:08;100131.94;;;6.87;100.00
77979;BME280;67169;50.268;8.694;2024-03-22T06:43:35;100115.91;;;6.87;100.00
77979;BME280;67169;50.268;8.694;2024-03-22T06:46:00;100099.75;;;6.93;100.00
77979;BME280;67169;50.268;8.694;2024-03-22T06:48:27;100091.69;;;6.95;100.00
77979;BME280;67169;50.268;8.694;2024-03-22T06:50:53;100094.34;;;6.96;100.00
77979;BME280;67169;50.268;8.694;2024-03-22T06:53:19;99971.00;;;6.18;100.00
77979;BME280;67169;50.268;8.694;2024-03-22T06:55:45;100080.22;;;6.88;100.00
77979;BME280;67169;50.268;8.694;2024-03-22T06:58:13;100085.38;;;7.00;100.00
77979;BME280;67169;50.268;8.694;2024-03-22T07:00:38;100084.44;;;7.01;100.00
77979;BME280;67169;50.268;8.694;2024-03-22T07:03:05;100075.53;;;7.01;100.00
77979;BME280;67169;50.268;8.694;2024-03-22T07:05:30;100079.91;;;7.06;100.00
77979;BME280;67169;50.268;8.694;2024-03-22T07:07:57;100078.97;;;7.09;100.00
77979;BME280;67169;50.268;8.694;2024-03-22T07:10:23;100082.47;;;7.11;100.00
77979;BME280;67169;50.268;8.694;2024-03-22T07:12:53;100084.28;;;7.10;100.00
77979;BME280;67169;50.268;8.694;2024-03-22T07:15:20;100074.31;;;7.19;100.00
77979;BME280;67169;50.268;8.694;2024-03-22T07:17:47;100084.00;;;7.24;100.00
77979;BME280;67169;50.268;8.694;2024-03-22T07:20:12;100064.44;;;7.22;100.00
77979;BME280;67169;50.268;8.694;2024-03-22T07:22:39;100078.41;;;7.38;100.00
77979;BME280;67169;50.268;8.694;2024-03-22T07:25:04;100059.84;;;7.29;100.00
77979;BME280;67169;50.268;8.694;2024-03-22T07:27:31;100021.72;;;7.18;100.00
77979;BME280;67169;50.268;8.694;2024-03-22T07:29:56;100077.88;;;7.64;100.00
77979;BME280;67169;50.268;8.694;2024-03-22T07:32:24;100078.34;;;7.83;100.00
77979;BME280;67169;50.268;8.694;2024-03-22T07:34:50;100080.03;;;7.87;100.00
77979;BME280;67169;50.268;8.694;2024-03-22T07:37:16;100069.06;;;7.98;100.00
77979;BME280;67169;50.268;8.694;2024-03-22T07:39:42;100018.56;;;7.81;100.00
77979;BME280;67169;50.268;8.694;2024-03-22T07:42:08;100064.31;;;8.12;100.00
77979;BME280;67169;50.268;8.694;2024-03-22T07:44:34;100049.25;;;8.06;100.00
77979;BME280;67169;50.268;8.694;2024-03-22T07:47:00;100020.91;;;7.96;100.00
77979;BME280;67169;50.268;8.694;2024-03-22T07:49:27;100028.66;;;8.08;100.00
77979;BME280;67169;50.268;8.694;2024-03-22T07:51:54;100055.78;;;8.32;100.00
77979;BME280;67169;50.268;8.694;2024-03-22T07:54:19;100058.22;;;8.43;100.00
77979;BME280;67169;50.268;8.694;2024-03-22T07:56:46;100051.09;;;8.43;100.00
77979;BME280;67169;50.268;8.694;2024-03-22T07:59:11;100044.59;;;8.53;100.00
77979;BME280;67169;50.268;8.694;2024-03-22T08:01:38;100037.34;;;8.57;99.78
77979;BME280;67169;50.268;8.694;2024-03-22T08:04:03;100040.97;;;8.54;99.67
77979;BME280;67169;50.268;8.694;2024-03-22T08:06:31;100038.13;;;8.61;99.32
77979;BME280;67169;50.268;8.694;2024-03-22T08:08:57;100028.09;;;8.69;99.38
77979;BME280;67169;50.268;8.694;2024-03-22T08:11:23;100029.38;;;8.88;99.09
77979;BME280;67169;50.268;8.694;2024-03-22T08:13:49;100024.47;;;8.70;98.86
77979;BME280;67169;50.268;8.694;2024-03-22T08:16:15;100016.06;;;8.84;98.78
77979;BME280;67169;50.268;8.694;2024-03-22T08:18:41;100010.22;;;9.02;98.68
77979;BME280;67169;50.268;8.694;2024-03-22T08:21:07;100003.69;;;9.11;98.41
77979;BME280;67169;50.268;8.694;2024-03-22T08:23:34;100003.78;;;9.08;98.40
77979;BME280;67169;50.268;8.694;2024-03-22T08:26:00;100012.19;;;9.26;98.26
77979;BME280;67169;50.268;8.694;2024-03-22T08:28:26;100006.69;;;9.31;97.77
77979;BME280;67169;50.268;8.694;2024-03-22T08:30:52;100009.47;;;9.28;97.77
77979;BME280;67169;50.268;8.694;2024-03-22T08:33:18;99999.81;;;9.21;97.58
77979;BME280;67169;50.268;8.694;2024-03-22T08:35:44;100000.22;;;9.38;97.54
77979;BME280;67169;50.268;8.694;2024-03-22T08:38:10;99993.38;;;9.58;97.24
77979;BME280;67169;50.268;8.694;2024-03-22T08:40:41;99967.72;;;9.47;96.76
77979;BME280;67169;50.268;8.694;2024-03-22T08:43:06;99978.00;;;9.63;96.47
77979;BME280;67169;50.268;8.694;2024-03-22T08:45:33;99979.13;;;9.84;95.79
77979;BME280;67169;50.268;8.694;2024-03-22T08:47:58;99979.63;;;9.96;95.22
77979;BME280;67169;50.268;8.694;2024-03-22T08:50:25;99961.66;;;9.98;94.30
77979;BME280;67169;50.268;8.694;2024-03-22T08:52:51;99953.72;;;9.94;93.76
77979;BME280;67169;50.268;8.694;2024-03-22T08:55:18;99952.47;;;10.06;93.20
77979;BME280;67169;50.268;8.694;2024-03-22T08:57:44;99943.16;;;10.16;92.69
77979;BME280;67169;50.268;8.694;2024-03-22T09:00:12;99935.09;;;10.16;92.02
77979;BME280;67169;50.268;8.694;2024-03-22T09:02:37;99927.13;;;10.13;91.47
77979;BME280;67169;50.268;8.694;2024-03-22T09:05:05;99940.75;;;10.08;91.07
77979;BME280;67169;50.268;8.694;2024-03-22T09:07:30;99935.44;;;10.33;90.82
77979;BME280;67169;50.268;8.694;2024-03-22T09:09:57;99917.31;;;10.38;90.60
77979;BME280;67169;50.268;8.694;2024-03-22T09:12:22;99924.47;;;10.39;90.10
77979;BME280;67169;50.268;8.694;2024-03-22T09:14:50;99915.25;;;10.47;89.64
77979;BME280;67169;50.268;8.694;2024-03-22T09:17:15;99900.59;;;10.30;89.45
77979;BME280;67169;50.268;8.694;2024-03-22T09:19:42;99911.41;;;10.54;89.19
77979;BME280;67169;50.268;8.694;2024-03-22T09:22:08;99910.66;;;10.50;88.54
77979;BME280;67169;50.268;8.694;2024-03-22T09:24:34;99917.56;;;10.82;88.63
77979;BME280;67169;50.268;8.694;2024-03-22T09:27:00;99903.25;;;10.57;87.98
77979;BME280;67169;50.268;8.694;2024-03-22T09:29:26;99879.69;;;10.38;87.83
77979;BME280;67169;50.268;8.694;2024-03-22T09:31:53;99903.00;;;10.88;87.89
77979;BME280;67169;50.268;8.694;2024-03-22T09:34:19;99903.38;;;11.02;87.54
77979;BME280;67169;50.268;8.694;2024-03-22T09:36:45;99902.53;;;11.00;87.04
77979;BME280;67169;50.268;8.694;2024-03-22T09:39:11;99878.50;;;10.96;86.69
77979;BME280;67169;50.268;8.694;2024-03-22T09:41:42;99892.06;;;11.39;86.57
77979;BME280;67169;50.268;8.694;2024-03-22T09:44:12;99897.19;;;11.46;86.43
77979;BME280;67169;50.268;8.694;2024-03-22T09:46:38;99884.53;;;11.48;86.19
77979;BME280;67169;50.268;8.694;2024-03-22T09:49:08;99892.53;;;11.49;85.82
77979;BME280;67169;50.268;8.694;2024-03-22T09:51:36;99874.88;;;11.87;85.67
77979;BME280;67169;50.268;8.694;2024-03-22T09:54:03;99874.25;;;11.79;84.58
77979;BME280;67169;50.268;8.694;2024-03-22T09:56:31;99872.59;;;11.99;84.41
77979;BME280;67169;50.268;8.694;2024-03-22T09:58:58;99721.59;;;11.15;83.67
77979;BME280;67169;50.268;8.694;2024-03-22T10:01:24;99850.50;;;11.91;83.29
77979;BME280;67169;50.268;8.694;2024-03-22T10:03:51;99847.31;;;11.79;83.33
77979;BME280;67169;50.268;8.694;2024-03-22T10:06:18;99845.84;;;11.94;83.17
77979;BME280;67169;50.268;8.694;2024-03-22T10:08:44;99853.03;;;11.94;82.98
77979;BME280;67169;50.268;8.694;2024-03-22T10:11:10;99837.69;;;11.96;82.79
77979;BME280;67169;50.268;8.694;2024-03-22T10:13:36;99845.66;;;12.19;82.50
77979;BME280;67169;50.268;8.694;2024-03-22T10:16:02;99837.00;;;12.11;82.41
77979;BME280;67169;50.268;8.694;2024-03-22T10:18:28;99816.16;;;12.55;81.51
77979;BME280;67169;50.268;8.694;2024-03-22T10:21:00;99809.91;;;12.94;80.22
77979;BME280;67169;50.268;8.694;2024-03-22T10:23:29;99807.72;;;12.83;79.45
77979;BME280;67169;50.268;8.694;2024-03-22T10:25:56;99799.16;;;13.12;79.52
77979;BME280;67169;50.268;8.694;2024-03-22T10:28:23;99796.72;;;13.26;78.74
77979;BME280;67169;50.268;8.694;2024-03-22T10:30:50;99786.25;;;13.18;77.76
77979;BME280;67169;50.268;8.694;2024-03-22T10:33:18;99790.84;;;13.16;77.17
77979;BME280;67169;50.268;8.694;2024-03-22T10:35:44;99800.03;;;13.31;76.62
77979;BME280;67169;50.268;8.694;2024-03-22T10:38:12;99793.53;;;13.54;76.66
77979;BME280;67169;50.268;8.694;2024-03-22T10:40:40;99795.25;;;13.55;75.50
77979;BME280;67169;50.268;8.694;2024-03-22T10:43:10;99777.03;;;13.77;74.85
77979;BME280;67169;50.268;8.694;2024-03-22T10:45:36;99772.94;;;14.21;75.04
77979;BME280;67169;50.268;8.694;2024-03-22T10:48:09;99757.00;;;14.83;73.85
77979;BME280;67169;50.268;8.694;2024-03-22T10:50:38;99744.84;;;15.53;70.57
77979;BME280;67169;50.268;8.694;2024-03-22T10:53:07;99750.38;;;15.20;70.65
77979;BME280;67169;50.268;8.694;2024-03-22T10:55:36;99732.38;;;14.38;70.56
77979;BME280;67169;50.268;8.694;2024-03-22T10:58:05;99756.72;;;14.71;72.07
77979;BME280;67169;50.268;8.694;2024-03-22T11:00:32;99757.22;;;14.62;72.80
77979;BME280;67169;50.268;8.694;2024-03-22T11:02:58;99739.50;;;14.72;71.48
77979;BME280;67169;50.268;8.694;2024-03-22T11:05:25;99740.00;;;15.74;70.70
77979;BME280;67169;50.268;8.694;2024-03-22T11:07:59;99714.28;;;15.35;70.52
77979;BME280;67169;50.268;8.694;2024-03-22T11:10:26;99726.50;;;15.42;71.18
77979;BME280;67169;50.268;8.694;2024-03-22T11:12:55;99722.69;;;15.77;66.08
77979;BME280;67169;50.268;8.694;2024-03-22T11:15:21;99717.75;;;15.37;61.86
77979;BME280;67169;50.268;8.694;2024-03-22T11:17:48;99709.03;;;15.32;63.09
77979;BME280;67169;50.268;8.694;2024-03-22T11:20:14;99706.16;;;15.19;71.07
77979;BME280;67169;50.268;8.694;2024-03-22T11:22:41;99707.28;;;15.00;69.26
77979;BME280;67169;50.268;8.694;2024-03-22T11:25:07;99711.66;;;15.02;70.37
77979;BME280;67169;50.268;8.694;2024-03-22T11:27:34;99704.59;;;15.00;72.71
77979;BME280;67169;50.268;8.694;2024-03-22T11:29:59;99707.31;;;14.84;73.15
77979;BME280;67169;50.268;8.694;2024-03-22T11:32:27;99702.59;;;14.87;72.46
77979;BME280;67169;50.268;8.694;2024-03-22T11:34:54;99696.72;;;14.63;72.91
77979;BME280;67169;50.268;8.694;2024-03-22T11:37:20;99703.53;;;14.86;73.16
77979;BME280;67169;50.268;8.694;2024-03-22T11:39:46;99671.91;;;14.55;73.06
77979;BME280;67169;50.268;8.694;2024-03-22T11:42:13;99671.81;;;14.72;73.39
77979;BME280;67169;50.268;8.694;2024-03-22T11:44:39;99681.38;;;14.80;73.74
77979;BME280;67169;50.268;8.694;2024-03-22T11:47:07;99679.09;;;15.04;73.45
77979;BME280;67169;50.268;8.694;2024-03-22T11:49:34;99680.63;;;15.24;73.48
77979;BME280;67169;50.268;8.694;2024-03-22T11:52:02;99652.16;;;15.16;72.20
77979;BME280;67169;50.268;8.694;2024-03-22T11:54:28;99671.44;;;15.72;71.82
77979;BME280;67169;50.268;8.694;2024-03-22T11:56:55;99658.00;;;15.99;71.33
77979;BME280;67169;50.268;8.694;2024-03-22T11:59:21;99660.03;;;15.65;71.43
77979;BME280;67169;50.268;8.694;2024-03-22T12:01:47;99657.88;;;15.72;71.62
77979;BME280;67169;50.268;8.694;2024-03-22T12:04:13;99639.34;;;15.64;69.04
77979;BME280;67169;50.268;8.694;2024-03-22T12:06:42;99635.66;;;16.24;70.70
77979;BME280;67169;50.268;8.694;2024-03-22T12:09:08;99623.13;;;15.93;70.86
77979;BME280;67169;50.268;8.694;2024-03-22T12:11:36;99637.75;;;15.76;71.52
77979;BME280;67169;50.268;8.694;2024-03-22T12:14:02;99626.44;;;15.98;71.40
77979;BME280;67169;50.268;8.694;2024-03-22T12:16:28;99627.50;;;15.96;71.32
77979;BME280;67169;50.268;8.694;2024-03-22T12:18:53;99632.16;;;16.22;71.01
77979;BME280;67169;50.268;8.694;2024-03-22T12:21:20;99615.69;;;15.97;71.18
77979;BME280;67169;50.268;8.694;2024-03-22T12:23:47;99628.34;;;15.82;71.45
77979;BME280;67169;50.268;8.694;2024-03-22T12:26:14;99617.13;;;16.31;71.12
77979;BME280;67169;50.268;8.694;2024-03-22T12:28:39;99575.09;;;15.81;70.93
77979;BME280;67169;50.268;8.694;2024-03-22T12:31:08;99602.78;;;15.86;71.40
77979;BME280;67169;50.268;8.694;2024-03-22T12:33:34;99605.41;;;15.73;71.11
77979;BME280;67169;50.268;8.694;2024-03-22T12:36:01;99599.13;;;15.73;71.91
77979;BME280;67169;50.268;8.694;2024-03-22T12:38:26;99601.47;;;15.63;71.65
77979;BME280;67169;50.268;8.694;2024-03-22T12:40:54;99584.66;;;15.72;71.38
77979;BME280;67169;50.268;8.694;2024-03-22T12:43:19;99601.00;;;15.56;71.53
77979;BME280;67169;50.268;8.694;2024-03-22T12:45:46;99590.47;;;15.36;72.22
77979;BME280;67169;50.268;8.694;2024-03-22T12:48:12;99594.09;;;15.20;72.83
77979;BME280;67169;50.268;8.694;2024-03-22T12:50:38;99592.16;;;15.38;72.72